Terminal Aerodrome Forecast
Issued by NWS Charleston, WV

Current Version | Previous Version | Graphics & Text | Print | Product List | Glossary On
Versions: 1 2 3 4 5 6 7 8 9 10 11 12 13 14 15 16 17 18 19 20 21 22 23 24 25 26
000
FTUS41 KRLX 260800 AAA
TAFHTS
TAF AMD
KHTS 260822Z 2608/2706 VRB03KT 3SM BR SCT025 OVC035
      TEMPO 2608/2609 BKN025
     FM260900 05004KT P6SM OVC025
     FM261000 01005KT P6SM OVC018
     FM261300 34006KT 5SM -RAPLSN BR OVC012
     FM261400 33007KT 3SM -SN OVC010
     FM261500 32007KT 1SM -SN OVC005
     FM261800 31008KT 2SM -SN OVC008
     FM262000 30009KT 6SM -SN OVC015
     FM262300 31007KT 5SM -SN BKN015
     FM270400 31004KT 6SM -SN BKN018=

USA.gov is the U.S. government's official web portal to all federal, state and local government web resources and services.